createdAt,value
2023-04-15T00:01:26.953Z,11.90
2023-04-15T00:06:28.795Z,11.82
2023-04-15T00:11:30.603Z,11.93
2023-04-15T00:16:32.489Z,11.52
2023-04-15T00:21:34.410Z,11.23
2023-04-15T00:26:37.624Z,10.75
2023-04-15T00:31:39.462Z,10.35
2023-04-15T00:36:41.323Z,11.32
2023-04-15T00:41:44.483Z,11.63
2023-04-15T00:46:48.756Z,11.43
2023-04-15T00:51:51.471Z,11.60
2023-04-15T00:56:53.250Z,11.15
2023-04-15T01:01:55.733Z,10.13
2023-04-15T01:06:57.934Z,10.98
2023-04-15T01:11:59.868Z,10.98
2023-04-15T01:17:02.280Z,10.00
2023-04-15T01:22:05.376Z,10.05
2023-04-15T01:27:07.315Z,9.35
2023-04-15T01:32:10.836Z,8.85
2023-04-15T01:37:12.699Z,9.90
2023-04-15T01:42:14.499Z,9.93
2023-04-15T01:47:17.752Z,8.65
2023-04-15T01:52:19.650Z,9.52
2023-04-15T01:57:21.502Z,10.13
2023-04-15T02:02:23.466Z,9.43
2023-04-15T02:07:26.696Z,10.02
2023-04-15T02:12:28.488Z,10.77
2023-04-15T02:17:30.685Z,10.90
2023-04-15T02:22:32.610Z,10.80
2023-04-15T02:27:35.925Z,11.10
2023-04-15T02:32:38.413Z,12.75
2023-04-15T02:37:45.918Z,12.30
2023-04-15T02:42:48.515Z,12.73
2023-04-15T02:47:52.862Z,12.20
2023-04-15T02:52:55.032Z,11.77
2023-04-15T02:57:58.554Z,11.40
2023-04-15T03:03:05.654Z,11.13
2023-04-15T03:08:07.749Z,10.85
2023-04-15T03:13:09.669Z,11.23
2023-04-15T03:18:11.515Z,10.88
2023-04-15T03:23:15.614Z,10.38
2023-04-15T03:28:17.670Z,10.25
2023-04-15T03:33:19.637Z,10.38
2023-04-15T03:38:21.665Z,10.00
2023-04-15T03:43:23.433Z,9.82
2023-04-15T03:48:25.481Z,9.57
2023-04-15T03:53:27.304Z,9.68
2023-04-15T03:58:29.102Z,9.27
2023-04-15T04:03:31.240Z,8.70
2023-04-15T04:08:33.178Z,9.10
2023-04-15T04:13:34.987Z,9.27
2023-04-15T04:18:36.833Z,9.93
2023-04-15T04:23:38.714Z,10.82
2023-04-15T04:28:40.742Z,11.23
2023-04-15T04:33:42.566Z,11.15
2023-04-15T04:38:44.371Z,10.88
2023-04-15T04:43:46.256Z,11.73
2023-04-15T04:48:48.049Z,11.43
2023-04-15T04:53:49.896Z,13.48
2023-04-15T04:58:51.915Z,12.52
2023-04-15T05:03:53.758Z,11.95
2023-04-15T05:08:56.695Z,11.25
2023-04-15T05:13:59.757Z,11.88
2023-04-15T05:19:01.551Z,11.20
2023-04-15T05:24:04.132Z,9.45
2023-04-15T05:29:05.827Z,9.98
2023-04-15T05:34:07.511Z,9.52
2023-04-15T05:39:09.115Z,9.65
2023-04-15T05:44:12.158Z,8.50
2023-04-15T05:49:13.749Z,8.30
2023-04-15T05:54:15.678Z,8.57
2023-04-15T05:59:17.342Z,8.18
2023-04-15T06:04:19.067Z,8.57
2023-04-15T06:09:20.941Z,7.93
2023-04-15T06:14:22.642Z,7.15
2023-04-15T06:19:24.703Z,7.85
2023-04-15T06:24:26.457Z,8.27
2023-04-15T06:29:28.044Z,7.85
2023-04-15T06:34:29.624Z,7.68
2023-04-15T06:39:31.246Z,7.63
2023-04-15T06:44:33.904Z,7.90
2023-04-15T06:49:35.979Z,8.23
2023-04-15T06:54:37.621Z,8.88
2023-04-15T06:59:39.315Z,7.63
2023-04-15T07:04:40.995Z,7.75
2023-04-15T07:09:42.800Z,7.93
2023-04-15T07:14:44.610Z,7.13
2023-04-15T07:19:46.447Z,7.20
2023-04-15T07:24:48.081Z,7.03
2023-04-15T07:29:51.518Z,6.88
2023-04-15T07:34:53.576Z,6.40
2023-04-15T07:39:55.606Z,7.20
2023-04-15T07:44:57.271Z,6.95
2023-04-15T07:49:58.849Z,6.95
2023-04-15T07:55:00.486Z,6.95
2023-04-15T08:00:03.887Z,8.25
2023-04-15T08:05:14.943Z,8.23
2023-04-15T08:10:16.726Z,8.10
2023-04-15T08:15:18.434Z,6.97
2023-04-15T08:20:20.673Z,6.80
2023-04-15T08:25:22.474Z,7.72
2023-04-15T08:30:24.093Z,8.35
2023-04-15T08:35:25.968Z,8.40
2023-04-15T08:40:40.545Z,7.82
2023-04-15T08:45:42.611Z,7.22
2023-04-15T08:50:45.395Z,7.35
2023-04-15T08:55:51.718Z,7.28
2023-04-15T09:00:53.718Z,7.80
2023-04-15T09:05:57.353Z,7.07
2023-04-15T09:10:59.000Z,7.85
2023-04-15T09:16:06.408Z,7.00
2023-04-15T09:21:11.092Z,7.32
2023-04-15T09:26:12.772Z,7.05
2023-04-15T09:31:15.515Z,7.43
2023-04-15T09:36:17.206Z,7.45
2023-04-15T09:41:19.690Z,7.72
2023-04-15T09:46:40.322Z,7.18
2023-04-15T09:51:48.547Z,8.02
2023-04-15T09:56:56.259Z,8.18
2023-04-15T10:01:58.453Z,8.15
2023-04-15T10:07:01.031Z,6.75
2023-04-15T10:12:04.826Z,7.88
2023-04-15T10:17:08.256Z,8.27
2023-04-15T10:22:10.599Z,8.90
2023-04-15T10:27:12.395Z,8.68
2023-04-15T10:32:14.809Z,8.93
2023-04-15T10:37:33.251Z,10.23
2023-04-15T10:42:35.507Z,9.90
2023-04-15T10:47:37.244Z,9.57
2023-04-15T10:52:44.131Z,10.10
2023-04-15T10:57:46.185Z,10.18
2023-04-15T11:02:58.255Z,10.85
2023-04-15T11:08:00.073Z,11.30
2023-04-15T11:13:14.861Z,11.52
2023-04-15T11:18:42.895Z,9.70
2023-04-15T11:23:46.968Z,11.02
2023-04-15T11:28:49.019Z,11.35
2023-04-15T11:34:02.436Z,12.73
2023-04-15T11:39:07.430Z,11.98
2023-04-15T11:44:18.509Z,11.57
2023-04-15T11:49:31.250Z,12.02
2023-04-15T11:54:32.874Z,10.43
2023-04-15T11:59:46.095Z,10.77
2023-04-15T12:04:48.173Z,12.85
2023-04-15T12:09:56.730Z,13.05
2023-04-15T12:14:59.462Z,12.00
2023-04-15T12:20:01.104Z,11.45
2023-04-15T12:25:03.090Z,11.75
2023-04-15T12:30:06.016Z,12.45
2023-04-15T12:35:08.070Z,12.77
2023-04-15T12:40:10.448Z,12.40
2023-04-15T12:45:12.057Z,12.90
2023-04-15T12:50:13.688Z,13.60
2023-04-15T12:55:15.372Z,12.82
2023-04-15T13:00:19.331Z,13.63
2023-04-15T13:05:21.243Z,13.45
2023-04-15T13:10:22.910Z,12.57
2023-04-15T13:15:25.901Z,13.55
2023-04-15T13:20:28.047Z,13.43
2023-04-15T13:25:29.714Z,13.18
2023-04-15T13:30:31.444Z,13.65
2023-04-15T13:35:33.784Z,14.18
2023-04-15T13:40:35.463Z,13.23
2023-04-15T13:45:37.208Z,14.57
2023-04-15T13:50:41.143Z,14.32
2023-04-15T13:55:43.318Z,14.57
2023-04-15T14:00:44.994Z,14.93
2023-04-15T14:05:46.759Z,13.48
2023-04-15T14:10:49.461Z,13.75
2023-04-15T14:15:51.246Z,15.35
2023-04-15T14:20:52.960Z,14.27
2023-04-15T14:25:54.793Z,13.82
2023-04-15T14:30:56.488Z,13.77
2023-04-15T14:35:58.311Z,16.05
2023-04-15T14:40:59.964Z,15.52
2023-04-15T14:46:01.985Z,19.05
2023-04-15T14:51:04.047Z,42.45
2023-04-15T14:56:05.969Z,15.20
2023-04-15T15:01:08.403Z,14.80
2023-04-15T15:06:10.119Z,27.33
2023-04-15T15:11:11.846Z,16.90
2023-04-15T15:16:14.642Z,16.13
2023-04-15T15:21:16.515Z,14.73
2023-04-15T15:26:19.322Z,14.98
2023-04-15T15:31:21.057Z,14.95
2023-04-15T15:36:22.910Z,15.20
2023-04-15T15:41:25.866Z,14.02
2023-04-15T15:46:31.339Z,14.32
2023-04-15T15:51:33.424Z,16.35
2023-04-15T15:56:35.128Z,15.35
2023-04-15T16:01:36.807Z,14.77
2023-04-15T16:06:38.581Z,16.05
2023-04-15T16:11:40.220Z,15.32
2023-04-15T16:16:41.937Z,17.08
2023-04-15T16:21:44.618Z,15.57
2023-04-15T16:26:46.342Z,16.20
2023-04-15T16:31:48.084Z,16.52
2023-04-15T16:36:49.705Z,16.48
2023-04-15T16:41:51.370Z,15.60
2023-04-15T16:46:53.051Z,17.25
2023-04-15T16:51:54.827Z,16.67
2023-04-15T16:56:58.619Z,17.98
2023-04-15T17:02:00.615Z,17.33
2023-04-15T17:07:02.667Z,17.15
2023-04-15T17:12:04.769Z,15.73
2023-04-15T17:17:06.491Z,17.08
2023-04-15T17:22:08.288Z,17.42
2023-04-15T17:27:09.956Z,16.52
2023-04-15T17:32:11.702Z,16.20
2023-04-15T17:37:13.366Z,16.50
2023-04-15T17:42:15.661Z,16.33
2023-04-15T17:47:17.415Z,16.42
2023-04-15T17:52:19.040Z,16.33
2023-04-15T17:57:20.665Z,17.52
2023-04-15T18:02:22.490Z,18.65
2023-04-15T18:07:24.543Z,19.73
2023-04-15T18:12:26.549Z,19.05
2023-04-15T18:17:28.312Z,18.20
2023-04-15T18:22:30.021Z,20.17
2023-04-15T18:27:33.330Z,18.40
2023-04-15T18:32:35.038Z,18.02
2023-04-15T18:37:36.840Z,19.63
2023-04-15T18:42:38.567Z,24.75
2023-04-15T18:47:40.662Z,17.45
2023-04-15T18:52:42.407Z,17.55
2023-04-15T18:57:45.026Z,18.80
2023-04-15T19:02:46.876Z,21.98
2023-04-15T19:07:49.693Z,19.50
2023-04-15T19:12:51.347Z,19.27
2023-04-15T19:17:52.967Z,19.02
2023-04-15T19:22:54.993Z,19.38
2023-04-15T19:27:58.876Z,20.15
2023-04-15T19:33:01.671Z,19.25
2023-04-15T19:38:03.444Z,20.60
2023-04-15T19:43:05.049Z,21.70
2023-04-15T19:48:07.612Z,23.17
2023-04-15T19:53:09.288Z,19.27
2023-04-15T19:58:11.351Z,20.90
2023-04-15T20:03:13.297Z,21.38
2023-04-15T20:08:15.330Z,21.45
2023-04-15T20:13:17.030Z,21.40
2023-04-15T20:18:18.824Z,19.83
2023-04-15T20:23:20.584Z,20.45
2023-04-15T20:28:23.400Z,20.35
2023-04-15T20:33:25.803Z,22.80
2023-04-15T20:38:27.476Z,20.98
2023-04-15T20:43:29.114Z,23.67
2023-04-15T20:48:31.084Z,20.88
2023-04-15T20:53:32.708Z,17.50
2023-04-15T20:58:34.339Z,18.52
2023-04-15T21:03:36.393Z,20.92
2023-04-15T21:08:38.032Z,21.75
2023-04-15T21:13:39.714Z,20.42
2023-04-15T21:18:41.349Z,21.05
2023-04-15T21:23:43.029Z,23.08
2023-04-15T21:28:44.678Z,21.58
2023-04-15T21:33:46.949Z,20.13
2023-04-15T21:38:48.538Z,22.30
2023-04-15T21:43:50.325Z,21.00
2023-04-15T21:48:55.052Z,24.63
2023-04-15T21:53:56.721Z,23.52
2023-04-15T21:58:58.411Z,20.30
2023-04-15T22:04:00.201Z,18.90
2023-04-15T22:09:02.014Z,19.77
2023-04-15T22:14:03.779Z,17.80
2023-04-15T22:19:05.612Z,18.55
2023-04-15T22:24:32.271Z,18.42
2023-04-15T22:29:30.327Z,19.20
2023-04-15T22:34:31.948Z,18.70
2023-04-15T22:39:33.627Z,22.30
2023-04-15T22:44:35.259Z,18.92
2023-04-15T22:49:36.897Z,20.88
2023-04-15T22:54:38.531Z,19.08
2023-04-15T22:59:40.108Z,17.73
2023-04-15T23:04:42.004Z,19.08
2023-04-15T23:09:43.841Z,20.98
2023-04-15T23:14:45.828Z,18.10
2023-04-15T23:19:47.636Z,16.80
2023-04-15T23:24:49.456Z,16.90
2023-04-15T23:29:51.329Z,17.77
2023-04-15T23:34:54.930Z,17.15
2023-04-15T23:39:56.771Z,18.23
2023-04-15T23:44:58.581Z,18.60
2023-04-15T23:50:00.455Z,17.75
2023-04-15T23:55:03.186Z,19.95
